KAFF

Usaf Academy Afld Airport

Colorado Springs, Colorado, USA
METAR KAFF 190658Z AUTO 01008KT 10SM CLR 16/07 A3023 RMK AO2 SLP137
Observed Flight Rules
Jul-19 @ 06:58 UTC (47 minutes ago) Visual Flight Rules
Wind Visibility Clouds
10° at 8 knots 10 miles
  • Clear skies
Temperatures Readings
Current 16°C / 61°F
Dewpoint 7°C / 45°F
Humidity 55%
Altimeter 30.23" Hg
Pressure 1013.7 hPa
Elevation 2003
METAR KAFF 190658Z AUTO 01008KT 10SM CLR 16/07 A3023 RMK AO2 SLP137
Observed Flight Rules
Jul-19 @ 06:58 UTC
(47 minutes ago)
VFR
Wind Visibility
10° at 8 knots 10 miles
Clouds
  • Clear skies
Temperature Dewpoint
16°C / 61°F 7°C / 45°F
Humidity Altimeter Pressure
55% 30.23" Hg 1013.7 hPa